sensor_id;sensor_type;location;lat;lon;timestamp;P1;durP1;ratioP1;P2;durP2;ratioP2
17570;SDS011;8903;52.220;20.978;2023-02-26T00:00:35;5.90;;;5.40;;
17570;SDS011;8903;52.220;20.978;2023-02-26T00:03:03;5.77;;;4.53;;
17570;SDS011;8903;52.220;20.978;2023-02-26T00:05:30;5.63;;;5.03;;
17570;SDS011;8903;52.220;20.978;2023-02-26T00:07:57;6.50;;;4.47;;
17570;SDS011;8903;52.220;20.978;2023-02-26T00:10:24;4.70;;;4.27;;
17570;SDS011;8903;52.220;20.978;2023-02-26T00:12:52;4.33;;;3.93;;
17570;SDS011;8903;52.220;20.978;2023-02-26T00:15:19;5.23;;;4.00;;
17570;SDS011;8903;52.220;20.978;2023-02-26T00:17:48;5.57;;;4.13;;
17570;SDS011;8903;52.220;20.978;2023-02-26T00:20:23;5.87;;;3.40;;
17570;SDS011;8903;52.220;20.978;2023-02-26T00:22:51;5.10;;;3.60;;
17570;SDS011;8903;52.220;20.978;2023-02-26T00:25:19;4.73;;;3.40;;
17570;SDS011;8903;52.220;20.978;2023-02-26T00:27:46;4.57;;;3.70;;
17570;SDS011;8903;52.220;20.978;2023-02-26T00:30:14;4.60;;;3.70;;
17570;SDS011;8903;52.220;20.978;2023-02-26T00:32:41;6.23;;;4.17;;
17570;SDS011;8903;52.220;20.978;2023-02-26T00:35:10;7.17;;;4.00;;
17570;SDS011;8903;52.220;20.978;2023-02-26T00:37:53;5.77;;;3.10;;
17570;SDS011;8903;52.220;20.978;2023-02-26T00:40:33;4.33;;;3.80;;
17570;SDS011;8903;52.220;20.978;2023-02-26T00:43:03;4.20;;;3.90;;
17570;SDS011;8903;52.220;20.978;2023-02-26T00:45:33;3.80;;;3.43;;
17570;SDS011;8903;52.220;20.978;2023-02-26T00:48:06;4.27;;;3.87;;
17570;SDS011;8903;52.220;20.978;2023-02-26T00:50:47;5.43;;;3.47;;
17570;SDS011;8903;52.220;20.978;2023-02-26T00:53:21;6.60;;;3.93;;
17570;SDS011;8903;52.220;20.978;2023-02-26T00:55:52;5.33;;;3.40;;
17570;SDS011;8903;52.220;20.978;2023-02-26T00:58:19;6.40;;;4.27;;
17570;SDS011;8903;52.220;20.978;2023-02-26T01:00:47;4.30;;;3.40;;
17570;SDS011;8903;52.220;20.978;2023-02-26T01:03:15;4.63;;;3.87;;
17570;SDS011;8903;52.220;20.978;2023-02-26T01:05:43;4.47;;;3.50;;
17570;SDS011;8903;52.220;20.978;2023-02-26T01:08:13;8.03;;;4.27;;
17570;SDS011;8903;52.220;20.978;2023-02-26T01:10:46;5.70;;;4.03;;
17570;SDS011;8903;52.220;20.978;2023-02-26T01:13:14;4.80;;;4.17;;
17570;SDS011;8903;52.220;20.978;2023-02-26T01:15:46;5.63;;;4.00;;
17570;SDS011;8903;52.220;20.978;2023-02-26T01:18:19;3.90;;;3.53;;
17570;SDS011;8903;52.220;20.978;2023-02-26T01:20:50;7.97;;;4.80;;
17570;SDS011;8903;52.220;20.978;2023-02-26T01:23:22;3.17;;;2.87;;
17570;SDS011;8903;52.220;20.978;2023-02-26T01:25:54;5.53;;;3.40;;
17570;SDS011;8903;52.220;20.978;2023-02-26T01:28:23;5.47;;;3.67;;
17570;SDS011;8903;52.220;20.978;2023-02-26T01:30:51;6.33;;;4.47;;
17570;SDS011;8903;52.220;20.978;2023-02-26T01:33:24;5.93;;;4.00;;
17570;SDS011;8903;52.220;20.978;2023-02-26T01:35:57;6.73;;;4.03;;
17570;SDS011;8903;52.220;20.978;2023-02-26T01:38:35;5.17;;;4.30;;
17570;SDS011;8903;52.220;20.978;2023-02-26T01:41:26;4.23;;;3.60;;
17570;SDS011;8903;52.220;20.978;2023-02-26T01:44:09;6.63;;;4.10;;
17570;SDS011;8903;52.220;20.978;2023-02-26T01:46:54;6.73;;;4.33;;
17570;SDS011;8903;52.220;20.978;2023-02-26T01:49:31;4.90;;;4.33;;
17570;SDS011;8903;52.220;20.978;2023-02-26T01:51:59;4.83;;;4.30;;
17570;SDS011;8903;52.220;20.978;2023-02-26T01:54:28;5.40;;;4.10;;
17570;SDS011;8903;52.220;20.978;2023-02-26T01:56:58;6.43;;;4.77;;
17570;SDS011;8903;52.220;20.978;2023-02-26T01:59:30;7.83;;;4.23;;
17570;SDS011;8903;52.220;20.978;2023-02-26T02:01:58;6.27;;;4.87;;
17570;SDS011;8903;52.220;20.978;2023-02-26T02:04:28;9.03;;;4.60;;
17570;SDS011;8903;52.220;20.978;2023-02-26T02:07:00;4.43;;;3.73;;
17570;SDS011;8903;52.220;20.978;2023-02-26T02:09:27;6.00;;;4.80;;
17570;SDS011;8903;52.220;20.978;2023-02-26T02:12:06;8.93;;;5.97;;
17570;SDS011;8903;52.220;20.978;2023-02-26T02:14:42;5.43;;;4.20;;
17570;SDS011;8903;52.220;20.978;2023-02-26T02:17:21;5.13;;;3.93;;
17570;SDS011;8903;52.220;20.978;2023-02-26T02:22:54;7.57;;;5.47;;
17570;SDS011;8903;52.220;20.978;2023-02-26T02:25:36;4.37;;;3.97;;
17570;SDS011;8903;52.220;20.978;2023-02-26T02:28:34;6.77;;;4.57;;
17570;SDS011;8903;52.220;20.978;2023-02-26T02:31:10;7.57;;;4.60;;
17570;SDS011;8903;52.220;20.978;2023-02-26T02:33:43;5.10;;;4.60;;
17570;SDS011;8903;52.220;20.978;2023-02-26T02:36:15;6.50;;;4.77;;
17570;SDS011;8903;52.220;20.978;2023-02-26T02:38:48;6.37;;;4.50;;
17570;SDS011;8903;52.220;20.978;2023-02-26T02:41:21;5.23;;;4.40;;
17570;SDS011;8903;52.220;20.978;2023-02-26T02:43:54;8.07;;;4.90;;
17570;SDS011;8903;52.220;20.978;2023-02-26T02:46:25;6.70;;;5.00;;
17570;SDS011;8903;52.220;20.978;2023-02-26T02:48:56;7.60;;;4.80;;
17570;SDS011;8903;52.220;20.978;2023-02-26T02:51:27;6.03;;;4.40;;
17570;SDS011;8903;52.220;20.978;2023-02-26T02:53:59;5.90;;;4.27;;
17570;SDS011;8903;52.220;20.978;2023-02-26T02:56:32;5.30;;;4.50;;
17570;SDS011;8903;52.220;20.978;2023-02-26T02:59:05;5.43;;;4.00;;
17570;SDS011;8903;52.220;20.978;2023-02-26T03:01:38;5.50;;;4.97;;
17570;SDS011;8903;52.220;20.978;2023-02-26T03:04:07;6.07;;;4.63;;
17570;SDS011;8903;52.220;20.978;2023-02-26T03:06:35;6.20;;;4.37;;
17570;SDS011;8903;52.220;20.978;2023-02-26T03:09:03;6.53;;;5.17;;
17570;SDS011;8903;52.220;20.978;2023-02-26T03:11:32;4.57;;;4.00;;
17570;SDS011;8903;52.220;20.978;2023-02-26T03:14:00;5.40;;;4.30;;
17570;SDS011;8903;52.220;20.978;2023-02-26T03:16:38;6.40;;;5.27;;
17570;SDS011;8903;52.220;20.978;2023-02-26T03:19:20;5.13;;;4.17;;
17570;SDS011;8903;52.220;20.978;2023-02-26T03:21:52;6.00;;;4.43;;
17570;SDS011;8903;52.220;20.978;2023-02-26T03:24:45;6.13;;;5.10;;
17570;SDS011;8903;52.220;20.978;2023-02-26T03:27:25;5.23;;;4.13;;
17570;SDS011;8903;52.220;20.978;2023-02-26T03:29:58;6.50;;;4.77;;
17570;SDS011;8903;52.220;20.978;2023-02-26T03:32:40;7.90;;;5.10;;
17570;SDS011;8903;52.220;20.978;2023-02-26T03:35:12;7.60;;;4.17;;
17570;SDS011;8903;52.220;20.978;2023-02-26T03:37:42;5.40;;;4.00;;
17570;SDS011;8903;52.220;20.978;2023-02-26T03:40:14;8.77;;;4.30;;
17570;SDS011;8903;52.220;20.978;2023-02-26T03:42:45;5.90;;;3.70;;
17570;SDS011;8903;52.220;20.978;2023-02-26T03:45:17;7.53;;;5.40;;
17570;SDS011;8903;52.220;20.978;2023-02-26T03:47:50;4.00;;;3.67;;
17570;SDS011;8903;52.220;20.978;2023-02-26T03:50:21;5.80;;;4.07;;
17570;SDS011;8903;52.220;20.978;2023-02-26T03:53:20;5.90;;;4.50;;
17570;SDS011;8903;52.220;20.978;2023-02-26T03:55:57;4.50;;;3.67;;
17570;SDS011;8903;52.220;20.978;2023-02-26T03:58:55;6.07;;;4.90;;
17570;SDS011;8903;52.220;20.978;2023-02-26T04:01:53;6.00;;;4.27;;
17570;SDS011;8903;52.220;20.978;2023-02-26T04:04:27;5.00;;;4.00;;
17570;SDS011;8903;52.220;20.978;2023-02-26T04:06:58;6.20;;;3.80;;
17570;SDS011;8903;52.220;20.978;2023-02-26T04:09:26;4.27;;;3.70;;
17570;SDS011;8903;52.220;20.978;2023-02-26T04:11:54;3.57;;;3.27;;
17570;SDS011;8903;52.220;20.978;2023-02-26T04:14:22;3.90;;;3.20;;
17570;SDS011;8903;52.220;20.978;2023-02-26T04:16:50;3.10;;;2.87;;
17570;SDS011;8903;52.220;20.978;2023-02-26T04:19:17;5.83;;;3.40;;
17570;SDS011;8903;52.220;20.978;2023-02-26T04:21:47;4.43;;;3.40;;
17570;SDS011;8903;52.220;20.978;2023-02-26T04:24:15;5.50;;;3.70;;
17570;SDS011;8903;52.220;20.978;2023-02-26T04:26:43;4.97;;;3.27;;
17570;SDS011;8903;52.220;20.978;2023-02-26T04:29:10;3.47;;;3.17;;
17570;SDS011;8903;52.220;20.978;2023-02-26T04:31:37;4.17;;;3.50;;
17570;SDS011;8903;52.220;20.978;2023-02-26T04:34:04;5.13;;;3.07;;
17570;SDS011;8903;52.220;20.978;2023-02-26T04:36:31;3.70;;;3.10;;
17570;SDS011;8903;52.220;20.978;2023-02-26T04:39:00;4.83;;;3.30;;
17570;SDS011;8903;52.220;20.978;2023-02-26T04:41:28;4.33;;;3.80;;
17570;SDS011;8903;52.220;20.978;2023-02-26T04:43:56;4.30;;;2.97;;
17570;SDS011;8903;52.220;20.978;2023-02-26T04:46:29;4.70;;;3.63;;
17570;SDS011;8903;52.220;20.978;2023-02-26T04:48:56;3.47;;;2.90;;
17570;SDS011;8903;52.220;20.978;2023-02-26T04:51:23;4.43;;;3.20;;
17570;SDS011;8903;52.220;20.978;2023-02-26T04:53:51;3.70;;;3.00;;
17570;SDS011;8903;52.220;20.978;2023-02-26T04:56:20;6.53;;;4.10;;
17570;SDS011;8903;52.220;20.978;2023-02-26T04:58:47;6.53;;;3.80;;
17570;SDS011;8903;52.220;20.978;2023-02-26T05:01:23;4.50;;;3.60;;
17570;SDS011;8903;52.220;20.978;2023-02-26T05:03:50;4.20;;;3.47;;
17570;SDS011;8903;52.220;20.978;2023-02-26T05:06:17;4.27;;;3.87;;
17570;SDS011;8903;52.220;20.978;2023-02-26T05:08:44;3.00;;;2.70;;
17570;SDS011;8903;52.220;20.978;2023-02-26T05:11:11;6.97;;;4.10;;
17570;SDS011;8903;52.220;20.978;2023-02-26T05:13:39;6.53;;;3.80;;
17570;SDS011;8903;52.220;20.978;2023-02-26T05:16:07;5.93;;;3.87;;
17570;SDS011;8903;52.220;20.978;2023-02-26T05:18:34;7.37;;;3.57;;
17570;SDS011;8903;52.220;20.978;2023-02-26T05:21:02;5.43;;;4.00;;
17570;SDS011;8903;52.220;20.978;2023-02-26T05:23:31;4.13;;;3.60;;
17570;SDS011;8903;52.220;20.978;2023-02-26T05:25:58;3.63;;;3.33;;
17570;SDS011;8903;52.220;20.978;2023-02-26T05:28:25;5.00;;;3.30;;
17570;SDS011;8903;52.220;20.978;2023-02-26T05:30:56;3.80;;;3.37;;
17570;SDS011;8903;52.220;20.978;2023-02-26T05:33:23;3.80;;;3.37;;
17570;SDS011;8903;52.220;20.978;2023-02-26T05:35:50;10.73;;;3.30;;
17570;SDS011;8903;52.220;20.978;2023-02-26T05:38:18;3.67;;;3.37;;
17570;SDS011;8903;52.220;20.978;2023-02-26T05:40:45;3.07;;;2.60;;
17570;SDS011;8903;52.220;20.978;2023-02-26T05:43:12;4.90;;;3.60;;
17570;SDS011;8903;52.220;20.978;2023-02-26T05:45:39;4.33;;;2.90;;
17570;SDS011;8903;52.220;20.978;2023-02-26T05:48:08;5.70;;;3.50;;
17570;SDS011;8903;52.220;20.978;2023-02-26T05:50:35;3.27;;;3.07;;
17570;SDS011;8903;52.220;20.978;2023-02-26T05:53:02;3.60;;;3.20;;
17570;SDS011;8903;52.220;20.978;2023-02-26T05:55:29;4.70;;;3.03;;
17570;SDS011;8903;52.220;20.978;2023-02-26T05:57:57;4.30;;;2.67;;
17570;SDS011;8903;52.220;20.978;2023-02-26T06:00:24;2.93;;;2.63;;
17570;SDS011;8903;52.220;20.978;2023-02-26T06:02:51;2.87;;;2.17;;
17570;SDS011;8903;52.220;20.978;2023-02-26T06:05:20;2.80;;;1.77;;
17570;SDS011;8903;52.220;20.978;2023-02-26T06:07:47;4.80;;;2.33;;
17570;SDS011;8903;52.220;20.978;2023-02-26T06:10:14;2.50;;;1.83;;
17570;SDS011;8903;52.220;20.978;2023-02-26T06:12:41;2.63;;;1.80;;
17570;SDS011;8903;52.220;20.978;2023-02-26T06:15:08;2.30;;;1.80;;
17570;SDS011;8903;52.220;20.978;2023-02-26T06:17:36;2.60;;;2.07;;
17570;SDS011;8903;52.220;20.978;2023-02-26T06:20:05;6.77;;;2.07;;
17570;SDS011;8903;52.220;20.978;2023-02-26T06:22:34;3.57;;;1.80;;
17570;SDS011;8903;52.220;20.978;2023-02-26T06:25:01;2.27;;;2.07;;
17570;SDS011;8903;52.220;20.978;2023-02-26T06:27:28;2.10;;;1.90;;
17570;SDS011;8903;52.220;20.978;2023-02-26T06:29:55;2.27;;;1.87;;
17570;SDS011;8903;52.220;20.978;2023-02-26T06:32:22;3.30;;;2.30;;
17570;SDS011;8903;52.220;20.978;2023-02-26T06:34:49;3.10;;;2.40;;
17570;SDS011;8903;52.220;20.978;2023-02-26T06:37:16;2.50;;;1.77;;
17570;SDS011;8903;52.220;20.978;2023-02-26T06:39:45;2.63;;;2.07;;
17570;SDS011;8903;52.220;20.978;2023-02-26T06:42:12;1.70;;;1.60;;
17570;SDS011;8903;52.220;20.978;2023-02-26T06:44:39;3.30;;;2.70;;
17570;SDS011;8903;52.220;20.978;2023-02-26T06:47:05;3.47;;;2.37;;
17570;SDS011;8903;52.220;20.978;2023-02-26T06:49:33;2.07;;;1.60;;
17570;SDS011;8903;52.220;20.978;2023-02-26T06:52:00;2.33;;;1.93;;
17570;SDS011;8903;52.220;20.978;2023-02-26T06:54:27;2.93;;;2.63;;
17570;SDS011;8903;52.220;20.978;2023-02-26T06:56:55;6.13;;;2.60;;
17570;SDS011;8903;52.220;20.978;2023-02-26T06:59:22;3.47;;;2.17;;
17570;SDS011;8903;52.220;20.978;2023-02-26T07:01:50;3.60;;;2.10;;
17570;SDS011;8903;52.220;20.978;2023-02-26T07:04:17;2.20;;;1.97;;
17570;SDS011;8903;52.220;20.978;2023-02-26T07:06:44;3.67;;;2.13;;
17570;SDS011;8903;52.220;20.978;2023-02-26T07:09:11;2.30;;;1.80;;
17570;SDS011;8903;52.220;20.978;2023-02-26T07:11:38;2.63;;;1.77;;
17570;SDS011;8903;52.220;20.978;2023-02-26T07:14:06;3.37;;;1.70;;
17570;SDS011;8903;52.220;20.978;2023-02-26T07:16:33;2.00;;;1.80;;
17570;SDS011;8903;52.220;20.978;2023-02-26T07:19:00;2.90;;;2.03;;
17570;SDS011;8903;52.220;20.978;2023-02-26T07:21:27;2.10;;;1.73;;
17570;SDS011;8903;52.220;20.978;2023-02-26T07:23:54;3.80;;;1.77;;
17570;SDS011;8903;52.220;20.978;2023-02-26T07:26:21;2.37;;;1.60;;
17570;SDS011;8903;52.220;20.978;2023-02-26T07:28:48;3.90;;;1.80;;
17570;SDS011;8903;52.220;20.978;2023-02-26T07:31:16;2.20;;;1.83;;
17570;SDS011;8903;52.220;20.978;2023-02-26T07:33:43;6.30;;;2.40;;
17570;SDS011;8903;52.220;20.978;2023-02-26T07:36:10;3.50;;;1.90;;
17570;SDS011;8903;52.220;20.978;2023-02-26T07:38:38;2.27;;;1.80;;
17570;SDS011;8903;52.220;20.978;2023-02-26T07:41:05;2.63;;;2.07;;
17570;SDS011;8903;52.220;20.978;2023-02-26T07:43:32;2.50;;;1.80;;
17570;SDS011;8903;52.220;20.978;2023-02-26T07:45:59;2.10;;;1.90;;
17570;SDS011;8903;52.220;20.978;2023-02-26T07:48:27;2.40;;;2.10;;
17570;SDS011;8903;52.220;20.978;2023-02-26T07:50:54;2.43;;;1.80;;
17570;SDS011;8903;52.220;20.978;2023-02-26T07:53:22;2.50;;;2.17;;
17570;SDS011;8903;52.220;20.978;2023-02-26T07:55:49;4.37;;;1.90;;
17570;SDS011;8903;52.220;20.978;2023-02-26T07:58:16;2.07;;;1.87;;
17570;SDS011;8903;52.220;20.978;2023-02-26T08:00:43;2.10;;;1.90;;
17570;SDS011;8903;52.220;20.978;2023-02-26T08:03:10;2.53;;;1.90;;
17570;SDS011;8903;52.220;20.978;2023-02-26T08:05:39;2.90;;;2.30;;
17570;SDS011;8903;52.220;20.978;2023-02-26T08:08:06;2.10;;;1.90;;
17570;SDS011;8903;52.220;20.978;2023-02-26T08:10:33;2.93;;;2.40;;
17570;SDS011;8903;52.220;20.978;2023-02-26T08:13:00;1.83;;;1.67;;
17570;SDS011;8903;52.220;20.978;2023-02-26T08:15:27;2.47;;;2.27;;
17570;SDS011;8903;52.220;20.978;2023-02-26T08:17:54;2.50;;;2.30;;
17570;SDS011;8903;52.220;20.978;2023-02-26T08:20:22;2.50;;;1.80;;
17570;SDS011;8903;52.220;20.978;2023-02-26T08:22:50;3.20;;;2.90;;
17570;SDS011;8903;52.220;20.978;2023-02-26T08:25:17;3.07;;;1.70;;
17570;SDS011;8903;52.220;20.978;2023-02-26T08:27:44;2.00;;;1.80;;
17570;SDS011;8903;52.220;20.978;2023-02-26T08:30:14;3.10;;;2.40;;
17570;SDS011;8903;52.220;20.978;2023-02-26T08:32:42;2.33;;;2.13;;
17570;SDS011;8903;52.220;20.978;2023-02-26T08:35:10;1.63;;;1.43;;
17570;SDS011;8903;52.220;20.978;2023-02-26T08:37:37;2.50;;;1.97;;
17570;SDS011;8903;52.220;20.978;2023-02-26T08:40:07;2.73;;;1.83;;
17570;SDS011;8903;52.220;20.978;2023-02-26T08:42:35;1.60;;;1.50;;
17570;SDS011;8903;52.220;20.978;2023-02-26T08:45:03;2.17;;;1.60;;
17570;SDS011;8903;52.220;20.978;2023-02-26T08:47:30;3.93;;;2.40;;
17570;SDS011;8903;52.220;20.978;2023-02-26T08:49:58;1.63;;;1.37;;
17570;SDS011;8903;52.220;20.978;2023-02-26T08:52:25;1.93;;;1.70;;
17570;SDS011;8903;52.220;20.978;2023-02-26T08:54:52;2.93;;;2.20;;
17570;SDS011;8903;52.220;20.978;2023-02-26T08:57:23;1.33;;;1.23;;
17570;SDS011;8903;52.220;20.978;2023-02-26T08:59:53;1.23;;;1.13;;
17570;SDS011;8903;52.220;20.978;2023-02-26T09:02:20;2.60;;;1.50;;
17570;SDS011;8903;52.220;20.978;2023-02-26T09:04:47;1.73;;;1.43;;
17570;SDS011;8903;52.220;20.978;2023-02-26T09:07:14;1.13;;;1.00;;
17570;SDS011;8903;52.220;20.978;2023-02-26T09:09:41;1.50;;;0.93;;
17570;SDS011;8903;52.220;20.978;2023-02-26T09:12:08;1.47;;;1.37;;
17570;SDS011;8903;52.220;20.978;2023-02-26T09:14:36;2.60;;;1.70;;
17570;SDS011;8903;52.220;20.978;2023-02-26T09:17:03;1.40;;;1.30;;
17570;SDS011;8903;52.220;20.978;2023-02-26T09:19:30;2.03;;;1.80;;
17570;SDS011;8903;52.220;20.978;2023-02-26T09:21:57;1.67;;;1.40;;
17570;SDS011;8903;52.220;20.978;2023-02-26T09:24:24;2.10;;;1.90;;
17570;SDS011;8903;52.220;20.978;2023-02-26T09:26:51;2.53;;;1.73;;
17570;SDS011;8903;52.220;20.978;2023-02-26T09:29:18;3.43;;;1.47;;
17570;SDS011;8903;52.220;20.978;2023-02-26T09:31:46;1.43;;;1.33;;
17570;SDS011;8903;52.220;20.978;2023-02-26T09:34:13;1.77;;;1.20;;
17570;SDS011;8903;52.220;20.978;2023-02-26T09:36:40;1.50;;;1.30;;
17570;SDS011;8903;52.220;20.978;2023-02-26T09:39:08;1.53;;;1.43;;
17570;SDS011;8903;52.220;20.978;2023-02-26T09:41:35;1.73;;;1.63;;
17570;SDS011;8903;52.220;20.978;2023-02-26T09:44:08;1.40;;;1.27;;
17570;SDS011;8903;52.220;20.978;2023-02-26T09:46:43;2.30;;;1.93;;
17570;SDS011;8903;52.220;20.978;2023-02-26T09:52:16;2.20;;;1.80;;
17570;SDS011;8903;52.220;20.978;2023-02-26T09:54:48;2.50;;;1.67;;
17570;SDS011;8903;52.220;20.978;2023-02-26T09:57:20;2.30;;;2.10;;
17570;SDS011;8903;52.220;20.978;2023-02-26T09:59:52;3.73;;;2.50;;
17570;SDS011;8903;52.220;20.978;2023-02-26T10:02:23;2.93;;;1.90;;
17570;SDS011;8903;52.220;20.978;2023-02-26T10:04:57;3.83;;;1.83;;
17570;SDS011;8903;52.220;20.978;2023-02-26T10:07:35;2.57;;;2.37;;
17570;SDS011;8903;52.220;20.978;2023-02-26T10:10:14;2.93;;;2.30;;
17570;SDS011;8903;52.220;20.978;2023-02-26T10:12:48;3.10;;;2.47;;
17570;SDS011;8903;52.220;20.978;2023-02-26T10:15:18;3.30;;;2.87;;
17570;SDS011;8903;52.220;20.978;2023-02-26T10:17:56;3.47;;;2.27;;
17570;SDS011;8903;52.220;20.978;2023-02-26T10:20:32;2.83;;;1.90;;
17570;SDS011;8903;52.220;20.978;2023-02-26T10:23:05;3.20;;;2.17;;
17570;SDS011;8903;52.220;20.978;2023-02-26T10:25:39;2.90;;;2.37;;
17570;SDS011;8903;52.220;20.978;2023-02-26T10:28:19;4.80;;;3.33;;
17570;SDS011;8903;52.220;20.978;2023-02-26T10:31:10;4.00;;;2.63;;
17570;SDS011;8903;52.220;20.978;2023-02-26T10:33:49;4.20;;;3.17;;
17570;SDS011;8903;52.220;20.978;2023-02-26T10:36:22;3.60;;;2.67;;
17570;SDS011;8903;52.220;20.978;2023-02-26T10:38:53;3.37;;;2.60;;
17570;SDS011;8903;52.220;20.978;2023-02-26T10:41:26;5.00;;;2.77;;
17570;SDS011;8903;52.220;20.978;2023-02-26T10:43:57;4.40;;;2.93;;
17570;SDS011;8903;52.220;20.978;2023-02-26T10:46:32;4.10;;;2.57;;
17570;SDS011;8903;52.220;20.978;2023-02-26T10:49:22;3.83;;;2.70;;
17570;SDS011;8903;52.220;20.978;2023-02-26T10:52:04;4.50;;;3.30;;
17570;SDS011;8903;52.220;20.978;2023-02-26T10:54:40;4.23;;;3.17;;
17570;SDS011;8903;52.220;20.978;2023-02-26T10:57:22;4.23;;;3.23;;
17570;SDS011;8903;52.220;20.978;2023-02-26T10:59:52;3.90;;;2.50;;
17570;SDS011;8903;52.220;20.978;2023-02-26T11:02:31;6.27;;;3.37;;
17570;SDS011;8903;52.220;20.978;2023-02-26T11:05:04;5.00;;;3.60;;
17570;SDS011;8903;52.220;20.978;2023-02-26T11:07:32;4.07;;;3.07;;
17570;SDS011;8903;52.220;20.978;2023-02-26T11:10:03;2.93;;;2.00;;
17570;SDS011;8903;52.220;20.978;2023-02-26T11:12:38;2.30;;;2.10;;
17570;SDS011;8903;52.220;20.978;2023-02-26T11:15:05;2.40;;;1.43;;
17570;SDS011;8903;52.220;20.978;2023-02-26T11:17:37;1.43;;;1.30;;
17570;SDS011;8903;52.220;20.978;2023-02-26T11:20:13;5.83;;;1.97;;
17570;SDS011;8903;52.220;20.978;2023-02-26T11:22:44;1.97;;;1.70;;
17570;SDS011;8903;52.220;20.978;2023-02-26T11:25:13;1.70;;;1.60;;
17570;SDS011;8903;52.220;20.978;2023-02-26T11:27:44;1.83;;;1.13;;
17570;SDS011;8903;52.220;20.978;2023-02-26T11:30:15;2.67;;;1.20;;
17570;SDS011;8903;52.220;20.978;2023-02-26T11:32:44;2.67;;;1.70;;
17570;SDS011;8903;52.220;20.978;2023-02-26T11:35:16;1.57;;;1.47;;
17570;SDS011;8903;52.220;20.978;2023-02-26T11:37:47;1.40;;;1.30;;
17570;SDS011;8903;52.220;20.978;2023-02-26T11:40:16;1.87;;;1.03;;
17570;SDS011;8903;52.220;20.978;2023-02-26T11:42:51;3.83;;;1.37;;
17570;SDS011;8903;52.220;20.978;2023-02-26T11:45:20;2.83;;;2.00;;
17570;SDS011;8903;52.220;20.978;2023-02-26T11:47:52;1.70;;;1.27;;
17570;SDS011;8903;52.220;20.978;2023-02-26T11:50:25;3.17;;;1.50;;
17570;SDS011;8903;52.220;20.978;2023-02-26T11:52:53;1.83;;;1.50;;
17570;SDS011;8903;52.220;20.978;2023-02-26T11:55:26;1.80;;;1.70;;
17570;SDS011;8903;52.220;20.978;2023-02-26T11:57:55;5.30;;;1.70;;
17570;SDS011;8903;52.220;20.978;2023-02-26T12:00:24;3.20;;;1.43;;
17570;SDS011;8903;52.220;20.978;2023-02-26T12:02:59;2.13;;;1.93;;
17570;SDS011;8903;52.220;20.978;2023-02-26T12:05:30;4.10;;;2.30;;
17570;SDS011;8903;52.220;20.978;2023-02-26T12:07:57;1.90;;;1.73;;
17570;SDS011;8903;52.220;20.978;2023-02-26T12:10:25;3.33;;;1.97;;
17570;SDS011;8903;52.220;20.978;2023-02-26T12:13:01;2.00;;;1.77;;
17570;SDS011;8903;52.220;20.978;2023-02-26T12:15:36;3.03;;;1.97;;
17570;SDS011;8903;52.220;20.978;2023-02-26T12:18:25;2.57;;;2.20;;
17570;SDS011;8903;52.220;20.978;2023-02-26T12:21:05;4.60;;;2.70;;
17570;SDS011;8903;52.220;20.978;2023-02-26T12:23:59;3.20;;;2.33;;
17570;SDS011;8903;52.220;20.978;2023-02-26T12:26:52;4.00;;;2.63;;
17570;SDS011;8903;52.220;20.978;2023-02-26T12:29:29;6.40;;;2.47;;
17570;SDS011;8903;52.220;20.978;2023-02-26T12:32:26;3.33;;;2.30;;
17570;SDS011;8903;52.220;20.978;2023-02-26T12:35:07;2.77;;;2.17;;
17570;SDS011;8903;52.220;20.978;2023-02-26T12:37:57;2.13;;;1.93;;
17570;SDS011;8903;52.220;20.978;2023-02-26T12:43:23;4.03;;;2.00;;
17570;SDS011;8903;52.220;20.978;2023-02-26T12:46:01;3.00;;;2.40;;
17570;SDS011;8903;52.220;20.978;2023-02-26T12:48:38;4.47;;;2.10;;
17570;SDS011;8903;52.220;20.978;2023-02-26T12:51:17;4.83;;;1.80;;
17570;SDS011;8903;52.220;20.978;2023-02-26T12:53:58;2.60;;;2.30;;
17570;SDS011;8903;52.220;20.978;2023-02-26T12:56:42;2.80;;;1.40;;
17570;SDS011;8903;52.220;20.978;2023-02-26T12:59:36;1.87;;;1.47;;
17570;SDS011;8903;52.220;20.978;2023-02-26T13:02:28;2.50;;;1.53;;
17570;SDS011;8903;52.220;20.978;2023-02-26T13:05:23;1.80;;;1.70;;
17570;SDS011;8903;52.220;20.978;2023-02-26T13:08:07;4.43;;;1.30;;
17570;SDS011;8903;52.220;20.978;2023-02-26T13:10:46;1.37;;;1.00;;
17570;SDS011;8903;52.220;20.978;2023-02-26T13:13:29;1.57;;;1.10;;
17570;SDS011;8903;52.220;20.978;2023-02-26T13:16:20;2.80;;;1.23;;
17570;SDS011;8903;52.220;20.978;2023-02-26T13:19:02;1.43;;;0.90;;
17570;SDS011;8903;52.220;20.978;2023-02-26T13:21:38;3.30;;;2.00;;
17570;SDS011;8903;52.220;20.978;2023-02-26T13:24:10;1.73;;;1.47;;
17570;SDS011;8903;52.220;20.978;2023-02-26T13:26:41;2.70;;;1.30;;
17570;SDS011;8903;52.220;20.978;2023-02-26T13:29:23;3.63;;;1.60;;
17570;SDS011;8903;52.220;20.978;2023-02-26T13:31:54;1.00;;;0.63;;
17570;SDS011;8903;52.220;20.978;2023-02-26T13:34:30;3.20;;;1.40;;
17570;SDS011;8903;52.220;20.978;2023-02-26T13:37:03;1.13;;;0.97;;
17570;SDS011;8903;52.220;20.978;2023-02-26T13:39:34;5.47;;;1.83;;
17570;SDS011;8903;52.220;20.978;2023-02-26T13:42:11;5.33;;;1.30;;
17570;SDS011;8903;52.220;20.978;2023-02-26T13:44:53;2.03;;;1.20;;
17570;SDS011;8903;52.220;20.978;2023-02-26T13:50:26;1.40;;;1.27;;
17570;SDS011;8903;52.220;20.978;2023-02-26T13:53:01;1.87;;;1.37;;
17570;SDS011;8903;52.220;20.978;2023-02-26T13:55:37;3.60;;;1.90;;
17570;SDS011;8903;52.220;20.978;2023-02-26T13:58:16;1.80;;;1.03;;
17570;SDS011;8903;52.220;20.978;2023-02-26T14:00:57;4.43;;;1.63;;
17570;SDS011;8903;52.220;20.978;2023-02-26T14:03:30;7.40;;;1.53;;
17570;SDS011;8903;52.220;20.978;2023-02-26T14:08:50;1.83;;;1.70;;
17570;SDS011;8903;52.220;20.978;2023-02-26T14:11:24;3.50;;;1.40;;
17570;SDS011;8903;52.220;20.978;2023-02-26T14:14:15;2.20;;;1.57;;
17570;SDS011;8903;52.220;20.978;2023-02-26T14:16:47;2.10;;;1.23;;
17570;SDS011;8903;52.220;20.978;2023-02-26T14:19:21;3.43;;;1.53;;
17570;SDS011;8903;52.220;20.978;2023-02-26T14:21:52;1.87;;;1.20;;
17570;SDS011;8903;52.220;20.978;2023-02-26T14:24:22;4.00;;;1.77;;
17570;SDS011;8903;52.220;20.978;2023-02-26T14:27:19;1.73;;;1.30;;
17570;SDS011;8903;52.220;20.978;2023-02-26T14:30:02;3.50;;;1.80;;
17570;SDS011;8903;52.220;20.978;2023-02-26T14:32:45;1.87;;;1.63;;
17570;SDS011;8903;52.220;20.978;2023-02-26T14:35:14;2.60;;;1.30;;
17570;SDS011;8903;52.220;20.978;2023-02-26T14:37:45;2.93;;;1.70;;
17570;SDS011;8903;52.220;20.978;2023-02-26T14:40:21;3.77;;;1.30;;
17570;SDS011;8903;52.220;20.978;2023-02-26T14:42:50;3.00;;;1.40;;
17570;SDS011;8903;52.220;20.978;2023-02-26T14:45:27;4.03;;;1.90;;
17570;SDS011;8903;52.220;20.978;2023-02-26T14:47:56;4.50;;;1.50;;
17570;SDS011;8903;52.220;20.978;2023-02-26T14:50:25;4.87;;;1.77;;
17570;SDS011;8903;52.220;20.978;2023-02-26T14:53:12;2.00;;;1.20;;
17570;SDS011;8903;52.220;20.978;2023-02-26T14:56:07;2.63;;;1.33;;
17570;SDS011;8903;52.220;20.978;2023-02-26T14:58:59;1.40;;;1.30;;
17570;SDS011;8903;52.220;20.978;2023-02-26T15:01:43;1.90;;;1.00;;
17570;SDS011;8903;52.220;20.978;2023-02-26T15:04:26;3.87;;;1.73;;
17570;SDS011;8903;52.220;20.978;2023-02-26T15:07:14;3.50;;;2.10;;
17570;SDS011;8903;52.220;20.978;2023-02-26T15:10:02;4.67;;;2.07;;
17570;SDS011;8903;52.220;20.978;2023-02-26T15:12:43;4.37;;;2.00;;
17570;SDS011;8903;52.220;20.978;2023-02-26T15:15:30;5.77;;;2.43;;
17570;SDS011;8903;52.220;20.978;2023-02-26T15:18:08;4.10;;;1.60;;
17570;SDS011;8903;52.220;20.978;2023-02-26T15:20:49;2.67;;;1.90;;
17570;SDS011;8903;52.220;20.978;2023-02-26T15:23:29;3.00;;;1.43;;
17570;SDS011;8903;52.220;20.978;2023-02-26T15:26:03;4.97;;;1.87;;
17570;SDS011;8903;52.220;20.978;2023-02-26T15:28:33;3.63;;;1.30;;
17570;SDS011;8903;52.220;20.978;2023-02-26T15:31:03;3.27;;;1.70;;
17570;SDS011;8903;52.220;20.978;2023-02-26T15:33:33;3.13;;;1.77;;